sensor_id;sensor_type;location;lat;lon;timestamp;temperature;humidity
71563;DHT22;59391;52.504;13.438;2023-09-30T00:02:12;20.20;64.70
71563;DHT22;59391;52.504;13.438;2023-09-30T00:04:38;20.20;64.50
71563;DHT22;59391;52.504;13.438;2023-09-30T00:07:04;20.10;64.30
71563;DHT22;59391;52.504;13.438;2023-09-30T00:09:30;20.10;64.00
71563;DHT22;59391;52.504;13.438;2023-09-30T00:11:56;20.00;63.40
71563;DHT22;59391;52.504;13.438;2023-09-30T00:14:21;20.00;63.30
71563;DHT22;59391;52.504;13.438;2023-09-30T00:16:47;20.00;62.20
71563;DHT22;59391;52.504;13.438;2023-09-30T00:19:13;19.90;61.70
71563;DHT22;59391;52.504;13.438;2023-09-30T00:21:39;19.90;61.30
71563;DHT22;59391;52.504;13.438;2023-09-30T00:24:05;19.90;60.50
71563;DHT22;59391;52.504;13.438;2023-09-30T00:26:30;19.80;60.40
71563;DHT22;59391;52.504;13.438;2023-09-30T00:28:56;19.80;59.60
71563;DHT22;59391;52.504;13.438;2023-09-30T00:31:22;19.70;59.20
71563;DHT22;59391;52.504;13.438;2023-09-30T00:33:47;19.70;58.40
71563;DHT22;59391;52.504;13.438;2023-09-30T00:36:13;19.70;57.80
71563;DHT22;59391;52.504;13.438;2023-09-30T00:38:39;19.70;58.00
71563;DHT22;59391;52.504;13.438;2023-09-30T00:41:07;19.60;57.80
71563;DHT22;59391;52.504;13.438;2023-09-30T00:43:33;19.50;57.70
71563;DHT22;59391;52.504;13.438;2023-09-30T00:48:49;19.50;58.10
71563;DHT22;59391;52.504;13.438;2023-09-30T00:51:15;19.40;58.20
71563;DHT22;59391;52.504;13.438;2023-09-30T00:53:41;19.40;58.30
71563;DHT22;59391;52.504;13.438;2023-09-30T00:56:08;19.40;58.10
71563;DHT22;59391;52.504;13.438;2023-09-30T00:58:34;19.30;57.90
71563;DHT22;59391;52.504;13.438;2023-09-30T01:01:01;19.30;58.00
71563;DHT22;59391;52.504;13.438;2023-09-30T01:03:26;19.20;58.10
71563;DHT22;59391;52.504;13.438;2023-09-30T01:05:53;19.20;57.70
71563;DHT22;59391;52.504;13.438;2023-09-30T01:08:19;19.10;57.60
71563;DHT22;59391;52.504;13.438;2023-09-30T01:10:45;19.10;57.60
71563;DHT22;59391;52.504;13.438;2023-09-30T01:13:11;19.00;57.50
71563;DHT22;59391;52.504;13.438;2023-09-30T01:15:37;19.00;57.40
71563;DHT22;59391;52.504;13.438;2023-09-30T01:18:03;19.00;57.50
71563;DHT22;59391;52.504;13.438;2023-09-30T01:20:29;18.90;57.80
71563;DHT22;59391;52.504;13.438;2023-09-30T01:22:57;18.90;57.90
71563;DHT22;59391;52.504;13.438;2023-09-30T01:25:24;18.90;58.20
71563;DHT22;59391;52.504;13.438;2023-09-30T01:27:49;18.90;58.20
71563;DHT22;59391;52.504;13.438;2023-09-30T01:30:17;18.80;58.40
71563;DHT22;59391;52.504;13.438;2023-09-30T01:32:43;18.80;58.50
71563;DHT22;59391;52.504;13.438;2023-09-30T01:35:09;18.80;58.70
71563;DHT22;59391;52.504;13.438;2023-09-30T01:37:35;18.70;58.80
71563;DHT22;59391;52.504;13.438;2023-09-30T01:40:02;18.70;58.80
71563;DHT22;59391;52.504;13.438;2023-09-30T01:42:33;18.70;58.70
71563;DHT22;59391;52.504;13.438;2023-09-30T01:44:59;18.60;58.60
71563;DHT22;59391;52.504;13.438;2023-09-30T01:47:24;18.60;58.70
71563;DHT22;59391;52.504;13.438;2023-09-30T01:49:50;18.50;58.80
71563;DHT22;59391;52.504;13.438;2023-09-30T01:52:16;18.50;58.90
71563;DHT22;59391;52.504;13.438;2023-09-30T01:54:41;18.50;58.80
71563;DHT22;59391;52.504;13.438;2023-09-30T01:57:07;18.40;58.90
71563;DHT22;59391;52.504;13.438;2023-09-30T01:59:32;18.40;59.00
71563;DHT22;59391;52.504;13.438;2023-09-30T02:01:58;18.40;59.00
71563;DHT22;59391;52.504;13.438;2023-09-30T02:04:24;18.30;59.10
71563;DHT22;59391;52.504;13.438;2023-09-30T02:06:49;18.30;59.30
71563;DHT22;59391;52.504;13.438;2023-09-30T02:09:15;18.20;59.40
71563;DHT22;59391;52.504;13.438;2023-09-30T02:11:41;18.20;59.40
71563;DHT22;59391;52.504;13.438;2023-09-30T02:14:07;18.20;59.60
71563;DHT22;59391;52.504;13.438;2023-09-30T02:16:32;18.20;59.90
71563;DHT22;59391;52.504;13.438;2023-09-30T02:18:58;18.10;60.00
71563;DHT22;59391;52.504;13.438;2023-09-30T02:21:24;18.10;60.20
71563;DHT22;59391;52.504;13.438;2023-09-30T02:23:50;18.00;60.30
71563;DHT22;59391;52.504;13.438;2023-09-30T02:26:20;18.00;60.40
71563;DHT22;59391;52.504;13.438;2023-09-30T02:28:47;18.00;60.40
71563;DHT22;59391;52.504;13.438;2023-09-30T02:31:12;17.90;60.30
71563;DHT22;59391;52.504;13.438;2023-09-30T02:33:38;17.90;60.40
71563;DHT22;59391;52.504;13.438;2023-09-30T02:36:08;17.90;60.50
71563;DHT22;59391;52.504;13.438;2023-09-30T02:38:34;17.90;60.60
71563;DHT22;59391;52.504;13.438;2023-09-30T02:41:02;17.90;60.80
71563;DHT22;59391;52.504;13.438;2023-09-30T02:43:28;17.80;61.10
71563;DHT22;59391;52.504;13.438;2023-09-30T02:45:54;17.80;61.30
71563;DHT22;59391;52.504;13.438;2023-09-30T02:48:20;17.80;61.60
71563;DHT22;59391;52.504;13.438;2023-09-30T02:50:45;17.70;61.90
71563;DHT22;59391;52.504;13.438;2023-09-30T02:53:11;17.70;62.00
71563;DHT22;59391;52.504;13.438;2023-09-30T02:55:39;17.70;62.10
71563;DHT22;59391;52.504;13.438;2023-09-30T02:58:05;17.60;62.30
71563;DHT22;59391;52.504;13.438;2023-09-30T03:00:33;17.60;62.40
71563;DHT22;59391;52.504;13.438;2023-09-30T03:03:01;17.60;62.80
71563;DHT22;59391;52.504;13.438;2023-09-30T03:05:27;17.60;62.90
71563;DHT22;59391;52.504;13.438;2023-09-30T03:07:55;17.50;63.10
71563;DHT22;59391;52.504;13.438;2023-09-30T03:10:21;17.50;63.00
71563;DHT22;59391;52.504;13.438;2023-09-30T03:12:55;17.50;63.10
71563;DHT22;59391;52.504;13.438;2023-09-30T03:15:24;17.50;63.30
71563;DHT22;59391;52.504;13.438;2023-09-30T03:17:50;17.50;63.40
71563;DHT22;59391;52.504;13.438;2023-09-30T03:20:15;17.40;63.50
71563;DHT22;59391;52.504;13.438;2023-09-30T03:22:44;17.40;63.70
71563;DHT22;59391;52.504;13.438;2023-09-30T03:25:15;17.40;63.80
71563;DHT22;59391;52.504;13.438;2023-09-30T03:27:43;17.40;63.90
71563;DHT22;59391;52.504;13.438;2023-09-30T03:30:10;17.30;64.10
71563;DHT22;59391;52.504;13.438;2023-09-30T03:32:37;17.30;64.10
71563;DHT22;59391;52.504;13.438;2023-09-30T03:35:10;17.30;64.00
71563;DHT22;59391;52.504;13.438;2023-09-30T03:37:40;17.30;64.00
71563;DHT22;59391;52.504;13.438;2023-09-30T03:40:07;17.30;64.10
71563;DHT22;59391;52.504;13.438;2023-09-30T03:42:42;17.20;64.20
71563;DHT22;59391;52.504;13.438;2023-09-30T03:45:09;17.20;64.20
71563;DHT22;59391;52.504;13.438;2023-09-30T03:47:36;17.20;64.30
71563;DHT22;59391;52.504;13.438;2023-09-30T03:50:04;17.20;64.30
71563;DHT22;59391;52.504;13.438;2023-09-30T03:52:32;17.20;64.40
71563;DHT22;59391;52.504;13.438;2023-09-30T03:55:00;17.20;64.50
71563;DHT22;59391;52.504;13.438;2023-09-30T03:57:31;17.10;64.50
71563;DHT22;59391;52.504;13.438;2023-09-30T04:00:03;17.10;64.50
71563;DHT22;59391;52.504;13.438;2023-09-30T04:02:31;17.10;64.60
71563;DHT22;59391;52.504;13.438;2023-09-30T04:04:57;17.10;64.60
71563;DHT22;59391;52.504;13.438;2023-09-30T04:07:24;17.00;64.70
71563;DHT22;59391;52.504;13.438;2023-09-30T04:09:55;17.00;64.60
71563;DHT22;59391;52.504;13.438;2023-09-30T04:12:22;17.00;64.70
71563;DHT22;59391;52.504;13.438;2023-09-30T04:14:51;17.00;64.80
71563;DHT22;59391;52.504;13.438;2023-09-30T04:17:17;17.00;64.90
71563;DHT22;59391;52.504;13.438;2023-09-30T04:19:43;16.90;64.90
71563;DHT22;59391;52.504;13.438;2023-09-30T04:22:08;16.90;65.20
71563;DHT22;59391;52.504;13.438;2023-09-30T04:24:34;16.90;65.20
71563;DHT22;59391;52.504;13.438;2023-09-30T04:27:00;16.90;65.10
71563;DHT22;59391;52.504;13.438;2023-09-30T04:29:29;16.90;65.20
71563;DHT22;59391;52.504;13.438;2023-09-30T04:31:58;16.80;65.40
71563;DHT22;59391;52.504;13.438;2023-09-30T04:34:24;16.80;65.30
71563;DHT22;59391;52.504;13.438;2023-09-30T04:36:49;16.80;65.40
71563;DHT22;59391;52.504;13.438;2023-09-30T04:39:15;16.70;65.50
71563;DHT22;59391;52.504;13.438;2023-09-30T04:41:41;16.70;65.50
71563;DHT22;59391;52.504;13.438;2023-09-30T04:44:07;16.70;65.50
71563;DHT22;59391;52.504;13.438;2023-09-30T04:46:36;16.70;65.70
71563;DHT22;59391;52.504;13.438;2023-09-30T04:49:07;16.70;65.70
71563;DHT22;59391;52.504;13.438;2023-09-30T04:51:33;16.60;65.80
71563;DHT22;59391;52.504;13.438;2023-09-30T04:53:59;16.60;66.00
71563;DHT22;59391;52.504;13.438;2023-09-30T04:56:25;16.60;66.00
71563;DHT22;59391;52.504;13.438;2023-09-30T04:58:51;16.50;66.00
71563;DHT22;59391;52.504;13.438;2023-09-30T05:01:16;16.60;66.10
71563;DHT22;59391;52.504;13.438;2023-09-30T05:03:46;16.50;66.00
71563;DHT22;59391;52.504;13.438;2023-09-30T05:06:15;16.50;66.00
71563;DHT22;59391;52.504;13.438;2023-09-30T05:08:41;16.50;66.10
71563;DHT22;59391;52.504;13.438;2023-09-30T05:11:07;16.50;66.00
71563;DHT22;59391;52.504;13.438;2023-09-30T05:13:33;16.50;65.90
71563;DHT22;59391;52.504;13.438;2023-09-30T05:16:02;16.50;66.10
71563;DHT22;59391;52.504;13.438;2023-09-30T05:18:29;16.40;66.00
71563;DHT22;59391;52.504;13.438;2023-09-30T05:20:55;16.40;66.10
71563;DHT22;59391;52.504;13.438;2023-09-30T05:23:20;16.40;66.20
71563;DHT22;59391;52.504;13.438;2023-09-30T05:25:46;16.40;66.30
71563;DHT22;59391;52.504;13.438;2023-09-30T05:28:12;16.40;66.40
71563;DHT22;59391;52.504;13.438;2023-09-30T05:30:39;16.40;66.40
71563;DHT22;59391;52.504;13.438;2023-09-30T05:33:06;16.40;66.50
71563;DHT22;59391;52.504;13.438;2023-09-30T05:35:32;16.40;66.40
71563;DHT22;59391;52.504;13.438;2023-09-30T05:37:58;16.30;66.50
71563;DHT22;59391;52.504;13.438;2023-09-30T05:40:24;16.30;66.50
71563;DHT22;59391;52.504;13.438;2023-09-30T05:42:56;16.40;66.50
71563;DHT22;59391;52.504;13.438;2023-09-30T05:45:23;16.30;66.50
71563;DHT22;59391;52.504;13.438;2023-09-30T05:47:49;16.40;66.40
71563;DHT22;59391;52.504;13.438;2023-09-30T05:50:18;16.40;66.30
71563;DHT22;59391;52.504;13.438;2023-09-30T05:52:49;16.40;66.30
71563;DHT22;59391;52.504;13.438;2023-09-30T05:55:16;16.40;66.40
71563;DHT22;59391;52.504;13.438;2023-09-30T05:57:48;16.40;66.50
71563;DHT22;59391;52.504;13.438;2023-09-30T06:00:20;16.40;66.40
71563;DHT22;59391;52.504;13.438;2023-09-30T06:02:49;16.40;66.40
71563;DHT22;59391;52.504;13.438;2023-09-30T06:05:17;16.40;66.30
71563;DHT22;59391;52.504;13.438;2023-09-30T06:07:47;16.40;66.40
71563;DHT22;59391;52.504;13.438;2023-09-30T06:10:12;16.40;66.50
71563;DHT22;59391;52.504;13.438;2023-09-30T06:12:41;16.40;66.40
71563;DHT22;59391;52.504;13.438;2023-09-30T06:15:07;16.50;66.50
71563;DHT22;59391;52.504;13.438;2023-09-30T06:17:33;16.50;66.20
71563;DHT22;59391;52.504;13.438;2023-09-30T06:19:59;16.50;66.20
71563;DHT22;59391;52.504;13.438;2023-09-30T06:22:34;16.50;66.10
71563;DHT22;59391;52.504;13.438;2023-09-30T06:25:00;16.60;66.10
71563;DHT22;59391;52.504;13.438;2023-09-30T06:27:29;16.60;66.00
71563;DHT22;59391;52.504;13.438;2023-09-30T06:29:54;16.60;65.80
71563;DHT22;59391;52.504;13.438;2023-09-30T06:32:20;16.60;65.80
71563;DHT22;59391;52.504;13.438;2023-09-30T06:34:46;16.70;65.60
71563;DHT22;59391;52.504;13.438;2023-09-30T06:37:12;16.70;65.70
71563;DHT22;59391;52.504;13.438;2023-09-30T06:39:37;16.70;65.60
71563;DHT22;59391;52.504;13.438;2023-09-30T06:42:03;16.70;65.30
71563;DHT22;59391;52.504;13.438;2023-09-30T06:44:28;16.80;65.30
71563;DHT22;59391;52.504;13.438;2023-09-30T06:46:56;16.80;65.30
71563;DHT22;59391;52.504;13.438;2023-09-30T06:49:22;16.80;65.30
71563;DHT22;59391;52.504;13.438;2023-09-30T06:51:47;16.80;65.10
71563;DHT22;59391;52.504;13.438;2023-09-30T06:54:13;16.90;65.10
71563;DHT22;59391;52.504;13.438;2023-09-30T06:56:38;16.90;64.70
71563;DHT22;59391;52.504;13.438;2023-09-30T06:59:04;16.90;64.60
71563;DHT22;59391;52.504;13.438;2023-09-30T07:01:31;16.90;64.60
71563;DHT22;59391;52.504;13.438;2023-09-30T07:03:57;17.00;64.40
71563;DHT22;59391;52.504;13.438;2023-09-30T07:06:26;17.00;64.20
71563;DHT22;59391;52.504;13.438;2023-09-30T07:08:53;17.00;64.30
71563;DHT22;59391;52.504;13.438;2023-09-30T07:11:27;17.10;64.10
71563;DHT22;59391;52.504;13.438;2023-09-30T07:13:56;17.10;64.10
71563;DHT22;59391;52.504;13.438;2023-09-30T07:16:21;17.20;64.10
71563;DHT22;59391;52.504;13.438;2023-09-30T07:18:47;17.20;63.90
71563;DHT22;59391;52.504;13.438;2023-09-30T07:21:13;17.20;63.60
71563;DHT22;59391;52.504;13.438;2023-09-30T07:23:39;17.30;63.60
71563;DHT22;59391;52.504;13.438;2023-09-30T07:26:04;17.30;63.30
71563;DHT22;59391;52.504;13.438;2023-09-30T07:28:30;17.40;63.10
71563;DHT22;59391;52.504;13.438;2023-09-30T07:30:56;17.40;63.00
71563;DHT22;59391;52.504;13.438;2023-09-30T07:33:22;17.50;63.00
71563;DHT22;59391;52.504;13.438;2023-09-30T07:35:48;17.50;62.80
71563;DHT22;59391;52.504;13.438;2023-09-30T07:38:14;17.60;62.70
71563;DHT22;59391;52.504;13.438;2023-09-30T07:40:40;17.60;62.60
71563;DHT22;59391;52.504;13.438;2023-09-30T07:43:07;17.60;62.40
71563;DHT22;59391;52.504;13.438;2023-09-30T07:45:32;17.70;62.10
71563;DHT22;59391;52.504;13.438;2023-09-30T07:47:58;17.70;62.10
71563;DHT22;59391;52.504;13.438;2023-09-30T07:50:24;17.70;62.00
71563;DHT22;59391;52.504;13.438;2023-09-30T07:52:50;17.70;61.90
71563;DHT22;59391;52.504;13.438;2023-09-30T07:55:16;17.80;61.90
71563;DHT22;59391;52.504;13.438;2023-09-30T07:57:42;17.80;61.70
71563;DHT22;59391;52.504;13.438;2023-09-30T08:00:09;17.80;61.40
71563;DHT22;59391;52.504;13.438;2023-09-30T08:02:41;17.90;61.40
71563;DHT22;59391;52.504;13.438;2023-09-30T08:05:07;17.90;61.20
71563;DHT22;59391;52.504;13.438;2023-09-30T08:07:34;17.90;61.10
71563;DHT22;59391;52.504;13.438;2023-09-30T08:10:00;17.90;61.20
71563;DHT22;59391;52.504;13.438;2023-09-30T08:12:25;17.90;61.10
71563;DHT22;59391;52.504;13.438;2023-09-30T08:14:52;17.90;61.10
71563;DHT22;59391;52.504;13.438;2023-09-30T08:17:18;17.90;61.30
71563;DHT22;59391;52.504;13.438;2023-09-30T08:19:46;17.90;61.40
71563;DHT22;59391;52.504;13.438;2023-09-30T08:22:13;18.00;61.40
71563;DHT22;59391;52.504;13.438;2023-09-30T08:24:40;18.00;61.20
71563;DHT22;59391;52.504;13.438;2023-09-30T08:27:05;18.10;60.90
71563;DHT22;59391;52.504;13.438;2023-09-30T08:29:34;18.10;60.70
71563;DHT22;59391;52.504;13.438;2023-09-30T08:32:03;18.10;60.60
71563;DHT22;59391;52.504;13.438;2023-09-30T08:34:29;18.20;60.50
71563;DHT22;59391;52.504;13.438;2023-09-30T08:36:55;18.30;60.60
71563;DHT22;59391;52.504;13.438;2023-09-30T08:39:21;18.30;60.60
71563;DHT22;59391;52.504;13.438;2023-09-30T08:41:46;18.40;60.40
71563;DHT22;59391;52.504;13.438;2023-09-30T08:44:12;18.60;60.00
71563;DHT22;59391;52.504;13.438;2023-09-30T08:46:39;18.70;59.30
71563;DHT22;59391;52.504;13.438;2023-09-30T08:49:06;18.80;59.10
71563;DHT22;59391;52.504;13.438;2023-09-30T08:51:32;18.90;58.60
71563;DHT22;59391;52.504;13.438;2023-09-30T08:53:59;19.00;58.80
71563;DHT22;59391;52.504;13.438;2023-09-30T08:56:28;19.10;58.60
71563;DHT22;59391;52.504;13.438;2023-09-30T08:58:59;19.30;58.10
71563;DHT22;59391;52.504;13.438;2023-09-30T09:01:28;19.40;57.30
71563;DHT22;59391;52.504;13.438;2023-09-30T09:03:56;19.60;57.10
71563;DHT22;59391;52.504;13.438;2023-09-30T09:06:23;19.60;56.50
71563;DHT22;59391;52.504;13.438;2023-09-30T09:08:51;19.70;56.50
71563;DHT22;59391;52.504;13.438;2023-09-30T09:11:17;19.80;56.90
71563;DHT22;59391;52.504;13.438;2023-09-30T09:13:51;20.00;56.70
71563;DHT22;59391;52.504;13.438;2023-09-30T09:16:21;20.20;56.30
71563;DHT22;59391;52.504;13.438;2023-09-30T09:18:49;20.50;55.40
71563;DHT22;59391;52.504;13.438;2023-09-30T09:21:19;20.70;55.10
71563;DHT22;59391;52.504;13.438;2023-09-30T09:23:48;21.10;54.20
71563;DHT22;59391;52.504;13.438;2023-09-30T09:26:29;21.40;53.90
71563;DHT22;59391;52.504;13.438;2023-09-30T09:28:59;21.80;53.00
71563;DHT22;59391;52.504;13.438;2023-09-30T09:31:31;22.10;52.20
71563;DHT22;59391;52.504;13.438;2023-09-30T09:34:02;22.40;51.00
71563;DHT22;59391;52.504;13.438;2023-09-30T09:36:45;22.70;49.50
71563;DHT22;59391;52.504;13.438;2023-09-30T09:39:11;23.00;47.80
71563;DHT22;59391;52.504;13.438;2023-09-30T09:41:54;23.20;47.50
71563;DHT22;59391;52.504;13.438;2023-09-30T09:44:23;23.40;47.70
71563;DHT22;59391;52.504;13.438;2023-09-30T09:46:52;23.50;47.90
71563;DHT22;59391;52.504;13.438;2023-09-30T09:49:19;23.70;46.90
71563;DHT22;59391;52.504;13.438;2023-09-30T09:51:46;23.90;46.60
71563;DHT22;59391;52.504;13.438;2023-09-30T09:54:14;24.10;45.60
71563;DHT22;59391;52.504;13.438;2023-09-30T09:56:45;24.30;45.30
71563;DHT22;59391;52.504;13.438;2023-09-30T09:59:14;24.40;44.80
71563;DHT22;59391;52.504;13.438;2023-09-30T10:01:40;24.60;44.40
71563;DHT22;59391;52.504;13.438;2023-09-30T10:04:07;24.70;44.10
71563;DHT22;59391;52.504;13.438;2023-09-30T10:06:36;24.80;43.30
71563;DHT22;59391;52.504;13.438;2023-09-30T10:09:06;24.90;43.10
71563;DHT22;59391;52.504;13.438;2023-09-30T10:11:34;24.90;43.40
71563;DHT22;59391;52.504;13.438;2023-09-30T10:14:00;25.00;42.40
71563;DHT22;59391;52.504;13.438;2023-09-30T10:19:10;25.00;42.60
71563;DHT22;59391;52.504;13.438;2023-09-30T10:21:37;25.10;41.70
71563;DHT22;59391;52.504;13.438;2023-09-30T10:40:46;25.80;39.20
71563;DHT22;59391;52.504;13.438;2023-09-30T10:43:32;25.80;39.20
71563;DHT22;59391;52.504;13.438;2023-09-30T10:45:59;25.70;39.70
71563;DHT22;59391;52.504;13.438;2023-09-30T10:50:55;25.60;39.50
71563;DHT22;59391;52.504;13.438;2023-09-30T10:53:24;25.60;39.10
71563;DHT22;59391;52.504;13.438;2023-09-30T10:55:56;25.60;39.00
71563;DHT22;59391;52.504;13.438;2023-09-30T11:01:06;25.90;38.80
71563;DHT22;59391;52.504;13.438;2023-09-30T11:03:33;26.00;39.00
71563;DHT22;59391;52.504;13.438;2023-09-30T11:05:58;26.20;38.70
71563;DHT22;59391;52.504;13.438;2023-09-30T11:08:28;26.40;37.70
71563;DHT22;59391;52.504;13.438;2023-09-30T11:10:57;26.60;37.30
71563;DHT22;59391;52.504;13.438;2023-09-30T11:13:23;26.70;36.80
71563;DHT22;59391;52.504;13.438;2023-09-30T11:16:02;26.80;36.70
71563;DHT22;59391;52.504;13.438;2023-09-30T11:18:30;26.80;36.70
71563;DHT22;59391;52.504;13.438;2023-09-30T11:21:08;26.90;36.30
71563;DHT22;59391;52.504;13.438;2023-09-30T11:23:36;26.90;36.40
71563;DHT22;59391;52.504;13.438;2023-09-30T11:26:04;27.00;36.30
71563;DHT22;59391;52.504;13.438;2023-09-30T11:28:38;27.00;36.10
71563;DHT22;59391;52.504;13.438;2023-09-30T11:31:10;27.10;36.30
71563;DHT22;59391;52.504;13.438;2023-09-30T11:33:50;27.10;36.20
71563;DHT22;59391;52.504;13.438;2023-09-30T11:36:19;26.90;36.00
71563;DHT22;59391;52.504;13.438;2023-09-30T11:38:47;26.90;36.20
71563;DHT22;59391;52.504;13.438;2023-09-30T11:41:13;26.80;36.30
71563;DHT22;59391;52.504;13.438;2023-09-30T11:43:45;26.70;36.30
71563;DHT22;59391;52.504;13.438;2023-09-30T11:46:24;26.60;36.20
71563;DHT22;59391;52.504;13.438;2023-09-30T11:49:02;26.60;36.20
71563;DHT22;59391;52.504;13.438;2023-09-30T11:51:43;26.50;36.00
71563;DHT22;59391;52.504;13.438;2023-09-30T11:54:14;26.40;35.60
71563;DHT22;59391;52.504;13.438;2023-09-30T11:56:40;26.40;35.50
71563;DHT22;59391;52.504;13.438;2023-09-30T11:59:05;26.30;35.60
71563;DHT22;59391;52.504;13.438;2023-09-30T12:01:31;26.30;35.80
71563;DHT22;59391;52.504;13.438;2023-09-30T12:04:00;26.30;35.60
71563;DHT22;59391;52.504;13.438;2023-09-30T12:06:26;26.30;35.10
71563;DHT22;59391;52.504;13.438;2023-09-30T12:08:52;26.30;34.90
71563;DHT22;59391;52.504;13.438;2023-09-30T12:11:18;26.20;35.10
71563;DHT22;59391;52.504;13.438;2023-09-30T12:13:44;26.10;35.40
71563;DHT22;59391;52.504;13.438;2023-09-30T12:16:11;26.00;35.80
71563;DHT22;59391;52.504;13.438;2023-09-30T12:18:39;25.90;35.80
71563;DHT22;59391;52.504;13.438;2023-09-30T12:21:07;25.80;36.20
71563;DHT22;59391;52.504;13.438;2023-09-30T12:23:34;25.70;36.10
71563;DHT22;59391;52.504;13.438;2023-09-30T12:26:00;25.60;36.20
71563;DHT22;59391;52.504;13.438;2023-09-30T12:28:30;25.50;36.00
71563;DHT22;59391;52.504;13.438;2023-09-30T12:31:00;25.40;35.90
71563;DHT22;59391;52.504;13.438;2023-09-30T12:33:30;25.30;36.30
71563;DHT22;59391;52.504;13.438;2023-09-30T12:35:57;25.20;36.50
71563;DHT22;59391;52.504;13.438;2023-09-30T12:38:24;25.10;36.60
71563;DHT22;59391;52.504;13.438;2023-09-30T12:40:51;25.00;36.60
71563;DHT22;59391;52.504;13.438;2023-09-30T12:43:18;24.90;36.70
71563;DHT22;59391;52.504;13.438;2023-09-30T12:45:45;24.90;36.30
71563;DHT22;59391;52.504;13.438;2023-09-30T12:48:12;24.80;36.40
71563;DHT22;59391;52.504;13.438;2023-09-30T12:50:39;24.70;36.50
71563;DHT22;59391;52.504;13.438;2023-09-30T12:53:05;24.60;36.40
71563;DHT22;59391;52.504;13.438;2023-09-30T12:55:32;24.50;36.60
71563;DHT22;59391;52.504;13.438;2023-09-30T12:57:58;24.40;36.70
71563;DHT22;59391;52.504;13.438;2023-09-30T13:00:25;24.20;36.50
71563;DHT22;59391;52.504;13.438;2023-09-30T13:02:52;24.10;36.90
71563;DHT22;59391;52.504;13.438;2023-09-30T13:05:18;24.00;37.30
71563;DHT22;59391;52.504;13.438;2023-09-30T13:07:45;23.90;37.40
71563;DHT22;59391;52.504;13.438;2023-09-30T13:10:11;23.80;37.70
71563;DHT22;59391;52.504;13.438;2023-09-30T13:12:38;23.70;37.90
71563;DHT22;59391;52.504;13.438;2023-09-30T13:15:05;23.70;37.90
71563;DHT22;59391;52.504;13.438;2023-09-30T13:17:31;23.60;38.00
71563;DHT22;59391;52.504;13.438;2023-09-30T13:19:57;23.50;37.90
71563;DHT22;59391;52.504;13.438;2023-09-30T13:22:23;23.40;38.10
71563;DHT22;59391;52.504;13.438;2023-09-30T13:24:49;23.40;38.10
71563;DHT22;59391;52.504;13.438;2023-09-30T13:27:15;23.40;37.80
71563;DHT22;59391;52.504;13.438;2023-09-30T13:29:41;23.30;37.50
71563;DHT22;59391;52.504;13.438;2023-09-30T13:32:09;23.30;37.40
71563;DHT22;59391;52.504;13.438;2023-09-30T13:34:35;23.20;37.30
71563;DHT22;59391;52.504;13.438;2023-09-30T13:37:01;23.20;37.00
71563;DHT22;59391;52.504;13.438;2023-09-30T13:39:27;23.10;37.60
71563;DHT22;59391;52.504;13.438;2023-09-30T13:41:53;23.10;38.10
71563;DHT22;59391;52.504;13.438;2023-09-30T13:44:18;23.20;38.40
71563;DHT22;59391;52.504;13.438;2023-09-30T13:46:44;23.20;38.90
71563;DHT22;59391;52.504;13.438;2023-09-30T13:49:11;23.20;38.80
71563;DHT22;59391;52.504;13.438;2023-09-30T13:51:37;23.20;38.30
71563;DHT22;59391;52.504;13.438;2023-09-30T13:54:04;23.20;38.50
71563;DHT22;59391;52.504;13.438;2023-09-30T13:56:32;23.20;38.50
71563;DHT22;59391;52.504;13.438;2023-09-30T13:58:58;23.30;38.20
71563;DHT22;59391;52.504;13.438;2023-09-30T14:01:25;23.30;38.00
71563;DHT22;59391;52.504;13.438;2023-09-30T14:03:50;23.30;38.10
71563;DHT22;59391;52.504;13.438;2023-09-30T14:06:21;23.30;38.10
71563;DHT22;59391;52.504;13.438;2023-09-30T14:08:47;23.40;38.20
71563;DHT22;59391;52.504;13.438;2023-09-30T14:11:12;23.40;38.30
71563;DHT22;59391;52.504;13.438;2023-09-30T14:13:38;23.40;38.00
71563;DHT22;59391;52.504;13.438;2023-09-30T14:16:05;23.40;37.90
71563;DHT22;59391;52.504;13.438;2023-09-30T14:18:32;23.40;38.20
71563;DHT22;59391;52.504;13.438;2023-09-30T14:20:58;23.40;38.20
71563;DHT22;59391;52.504;13.438;2023-09-30T14:23:24;23.40;38.00
71563;DHT22;59391;52.504;13.438;2023-09-30T14:25:53;23.50;38.10
71563;DHT22;59391;52.504;13.438;2023-09-30T14:28:21;23.50;37.90
71563;DHT22;59391;52.504;13.438;2023-09-30T14:30:49;23.40;37.40
71563;DHT22;59391;52.504;13.438;2023-09-30T14:33:18;23.40;37.30
71563;DHT22;59391;52.504;13.438;2023-09-30T14:35:45;23.40;37.40
71563;DHT22;59391;52.504;13.438;2023-09-30T14:38:11;23.40;37.50
71563;DHT22;59391;52.504;13.438;2023-09-30T14:40:38;23.40;37.60
71563;DHT22;59391;52.504;13.438;2023-09-30T14:43:05;23.40;37.40
71563;DHT22;59391;52.504;13.438;2023-09-30T14:45:31;23.30;37.50
71563;DHT22;59391;52.504;13.438;2023-09-30T14:47:57;23.30;37.30
71563;DHT22;59391;52.504;13.438;2023-09-30T14:50:22;23.20;37.10
71563;DHT22;59391;52.504;13.438;2023-09-30T14:52:48;23.20;37.10
71563;DHT22;59391;52.504;13.438;2023-09-30T14:55:14;23.20;37.40
71563;DHT22;59391;52.504;13.438;2023-09-30T14:57:41;23.10;37.80
71563;DHT22;59391;52.504;13.438;2023-09-30T15:00:07;23.10;37.70
71563;DHT22;59391;52.504;13.438;2023-09-30T15:02:36;23.10;37.90
71563;DHT22;59391;52.504;13.438;2023-09-30T15:05:04;23.10;37.90
71563;DHT22;59391;52.504;13.438;2023-09-30T15:07:30;23.10;37.90
71563;DHT22;59391;52.504;13.438;2023-09-30T15:09:56;23.10;38.10
71563;DHT22;59391;52.504;13.438;2023-09-30T15:12:21;23.00;38.10
71563;DHT22;59391;52.504;13.438;2023-09-30T15:14:47;23.00;38.10
71563;DHT22;59391;52.504;13.438;2023-09-30T15:17:12;23.00;38.50
71563;DHT22;59391;52.504;13.438;2023-09-30T15:19:38;22.90;38.50
71563;DHT22;59391;52.504;13.438;2023-09-30T15:22:04;22.90;38.50
71563;DHT22;59391;52.504;13.438;2023-09-30T15:24:29;22.90;38.70
71563;DHT22;59391;52.504;13.438;2023-09-30T15:26:55;22.80;38.70
71563;DHT22;59391;52.504;13.438;2023-09-30T15:29:20;22.80;38.90
71563;DHT22;59391;52.504;13.438;2023-09-30T15:31:46;22.70;38.90
71563;DHT22;59391;52.504;13.438;2023-09-30T15:34:11;22.70;39.00
71563;DHT22;59391;52.504;13.438;2023-09-30T15:36:38;22.60;39.00
71563;DHT22;59391;52.504;13.438;2023-09-30T15:39:04;22.60;39.10
71563;DHT22;59391;52.504;13.438;2023-09-30T15:41:29;22.50;39.20
71563;DHT22;59391;52.504;13.438;2023-09-30T15:43:58;22.40;39.30